Time;durP1;ratioP1;P1;durP2;ratioP2;P2;SDS_P1;SDS_P2;PMS_P1;PMS_P2;Temp;Humidity;BMP_temperature;BMP_pressure;BME280_temperature;BME280_humidity;BME280_pressure;Samples;Min_cycle;Max_cycle;Signal;HPM_P1;HPM_P2
2021/10/21 00:00:07;;;;;;;2.67;1.20;;;19.10;99.90;;;;;;5052573;28;20511;-80
2021/10/21 00:02:38;;;;;;;2.53;1.27;;;19.10;99.90;;;;;;5052456;28;20169;-79
2021/10/21 00:05:05;;;;;;;1.90;1.10;;;19.20;99.90;;;;;;5053811;28;20602;-81
2021/10/21 00:07:31;;;;;;;3.90;1.67;;;19.20;99.90;;;;;;5052748;28;20701;-81
2021/10/21 00:09:59;;;;;;;2.60;1.03;;;19.30;99.90;;;;;;5056065;28;21212;-81
2021/10/21 00:12:25;;;;;;;2.57;1.30;;;19.30;99.90;;;;;;5053655;28;20173;-81
2021/10/21 00:14:51;;;;;;;1.43;0.93;;;19.30;99.90;;;;;;5053396;28;20618;-81
2021/10/21 00:17:17;;;;;;;2.67;1.20;;;19.40;99.90;;;;;;5051962;28;20541;-80
2021/10/21 00:19:42;;;;;;;2.50;1.03;;;19.40;99.90;;;;;;5053588;28;20568;-80
2021/10/21 00:22:08;;;;;;;1.80;0.93;;;19.40;99.90;;;;;;5053465;28;20161;-78
2021/10/21 00:24:34;;;;;;;2.23;0.90;;;19.50;99.90;;;;;;5053405;28;20173;-80
2021/10/21 00:27:00;;;;;;;1.67;1.20;;;19.50;99.90;;;;;;5053506;28;20659;-80
2021/10/21 00:29:26;;;;;;;1.63;0.97;;;19.50;99.90;;;;;;5052348;28;20201;-79
2021/10/21 00:31:52;;;;;;;1.70;1.00;;;19.40;99.90;;;;;;5051550;28;20656;-78
2021/10/21 00:34:18;;;;;;;1.60;1.00;;;19.30;99.90;;;;;;5053378;28;20172;-79
2021/10/21 00:36:45;;;;;;;2.17;1.00;;;19.10;99.90;;;;;;5051848;28;20175;-80
2021/10/21 00:39:11;;;;;;;1.50;1.10;;;18.90;99.90;;;;;;5052362;28;20903;-80
2021/10/21 00:41:37;;;;;;;2.00;0.93;;;18.70;99.90;;;;;;5053135;28;20566;-80
2021/10/21 00:44:08;;;;;;;2.80;1.33;;;18.60;99.90;;;;;;5052883;28;21110;-78
2021/10/21 00:46:41;;;;;;;3.83;1.10;;;18.30;99.90;;;;;;5055329;28;20930;-77
2021/10/21 00:49:07;;;;;;;1.80;0.87;;;18.10;99.90;;;;;;5052003;28;20631;-77
2021/10/21 00:51:36;;;;;;;2.90;1.30;;;17.90;99.90;;;;;;5052833;28;20657;-77
2021/10/21 00:54:03;;;;;;;3.10;1.23;;;17.80;99.90;;;;;;5052754;28;20928;-77
2021/10/21 00:56:30;;;;;;;2.07;0.97;;;17.70;99.90;;;;;;5051284;28;20657;-77
2021/10/21 00:58:56;;;;;;;2.57;0.90;;;17.60;99.90;;;;;;5052764;28;20591;-77
2021/10/21 01:01:23;;;;;;;2.60;1.33;;;17.50;99.90;;;;;;5052569;28;20568;-77
2021/10/21 01:03:52;;;;;;;1.90;1.00;;;17.40;99.90;;;;;;5051214;28;20606;-77
2021/10/21 01:06:19;;;;;;;1.90;0.90;;;17.30;99.90;;;;;;5052526;28;20626;-77
2021/10/21 01:08:45;;;;;;;1.33;0.80;;;17.20;99.90;;;;;;5052802;28;20643;-77
2021/10/21 01:11:14;;;;;;;1.30;0.80;;;17.10;99.90;;;;;;5052378;28;21188;-77
2021/10/21 01:13:40;;;;;;;4.23;0.90;;;17.10;99.90;;;;;;5052328;28;20563;-77
2021/10/21 01:16:10;;;;;;;2.80;0.80;;;17.00;99.90;;;;;;5051926;28;20615;-79
2021/10/21 01:18:36;;;;;;;1.20;0.70;;;16.90;99.90;;;;;;5052617;28;20578;-78
2021/10/21 01:21:03;;;;;;;1.87;0.70;;;16.90;99.90;;;;;;5051187;28;20658;-78
2021/10/21 01:23:30;;;;;;;1.50;0.60;;;16.80;99.90;;;;;;5052939;28;21009;-79
2021/10/21 01:25:55;;;;;;;7.23;0.90;;;16.70;99.90;;;;;;5051804;28;20624;-78
2021/10/21 01:28:21;;;;;;;2.13;0.70;;;16.70;99.90;;;;;;5066911;28;21032;-78
2021/10/21 01:30:47;;;;;;;1.07;0.53;;;16.50;99.90;;;;;;5062587;28;20169;-78
2021/10/21 01:33:13;;;;;;;2.17;0.60;;;16.40;99.90;;;;;;5071648;28;20602;-78
2021/10/21 01:35:39;;;;;;;1.50;0.60;;;16.30;99.90;;;;;;5071954;28;20283;-78
2021/10/21 01:38:05;;;;;;;1.57;0.50;;;16.20;99.90;;;;;;5070588;28;21226;-78
2021/10/21 01:40:31;;;;;;;2.50;0.70;;;16.10;99.90;;;;;;5072239;28;20578;-78
2021/10/21 01:42:58;;;;;;;1.60;0.60;;;16.00;99.90;;;;;;5071459;28;21110;-78
2021/10/21 01:45:29;;;;;;;4.23;0.50;;;15.90;99.90;;;;;;5072111;28;21113;-78
2021/10/21 01:47:57;;;;;;;1.20;0.50;;;15.80;99.90;;;;;;5071672;28;20622;-78
2021/10/21 01:50:24;;;;;;;2.00;0.50;;;15.80;99.90;;;;;;5072005;28;20566;-78
2021/10/21 01:52:50;;;;;;;1.97;0.50;;;15.70;99.90;;;;;;5053305;28;20563;-78
2021/10/21 01:55:17;;;;;;;1.47;0.57;;;15.60;99.90;;;;;;5071756;28;20737;-78
2021/10/21 01:57:43;;;;;;;2.60;0.60;;;15.60;99.90;;;;;;5071671;28;20595;-78
2021/10/21 02:00:14;;;;;;;1.60;0.50;;;15.60;99.90;;;;;;5073772;28;20563;-78
2021/10/21 02:02:42;;;;;;;3.20;2.20;;;15.60;99.90;;;;;;5071359;28;20614;-78
2021/10/21 02:05:08;;;;;;;3.47;0.60;;;15.50;99.90;;;;;;5071633;28;20598;-78
2021/10/21 02:07:34;;;;;;;1.53;0.80;;;15.50;99.90;;;;;;5071753;28;20679;-78
2021/10/21 02:10:00;;;;;;;3.70;0.60;;;15.50;99.90;;;;;;5071470;28;20566;-78
2021/10/21 02:12:26;;;;;;;2.63;0.50;;;15.40;99.90;;;;;;5071307;28;20604;-78
2021/10/21 02:14:52;;;;;;;1.70;0.63;;;15.40;99.90;;;;;;5071252;28;20693;-78
2021/10/21 02:17:22;;;;;;;3.00;0.50;;;15.30;99.90;;;;;;5071497;28;20656;-79
2021/10/21 02:19:48;;;;;;;2.50;0.50;;;15.30;99.90;;;;;;5071324;28;20179;-78
2021/10/21 02:22:14;;;;;;;6.30;0.73;;;15.30;99.90;;;;;;5071327;28;20565;-78
2021/10/21 02:24:40;;;;;;;3.23;0.50;;;15.20;99.90;;;;;;5071212;28;21166;-78
2021/10/21 02:27:05;;;;;;;2.03;0.70;;;15.20;99.90;;;;;;5071565;28;20172;-79
2021/10/21 02:29:31;;;;;;;4.43;1.00;;;15.20;99.90;;;;;;5071387;28;20204;-79
2021/10/21 02:31:57;;;;;;;1.90;0.60;;;15.20;99.90;;;;;;5070102;28;20165;-79
2021/10/21 02:34:23;;;;;;;2.83;0.60;;;15.20;99.90;;;;;;5071070;28;20544;-79
2021/10/21 02:36:48;;;;;;;3.60;1.00;;;15.20;99.90;;;;;;5072242;28;20625;-79
2021/10/21 02:39:14;;;;;;;4.07;0.60;;;15.20;99.90;;;;;;5071882;28;20550;-79
2021/10/21 02:41:40;;;;;;;2.60;0.60;;;15.20;99.90;;;;;;5075175;28;20249;-78
2021/10/21 02:44:06;;;;;;;2.30;0.70;;;15.20;99.90;;;;;;5074978;28;20160;-79
2021/10/21 02:46:31;;;;;;;1.90;0.50;;;15.20;99.90;;;;;;5066317;28;20731;-79
2021/10/21 02:48:57;;;;;;;3.53;0.60;;;15.30;99.90;;;;;;5066765;28;20287;-79
2021/10/21 02:51:23;;;;;;;2.90;0.50;;;15.30;99.90;;;;;;5075038;28;20160;-79
2021/10/21 02:53:48;;;;;;;1.43;0.60;;;15.30;99.90;;;;;;5074875;28;20523;-79
2021/10/21 02:56:14;;;;;;;3.73;0.60;;;15.30;99.90;;;;;;5074893;28;20192;-79
2021/10/21 02:58:40;;;;;;;4.30;0.50;;;15.30;99.90;;;;;;5075167;28;20241;-79
2021/10/21 03:01:06;;;;;;;1.93;0.50;;;15.30;99.90;;;;;;5074764;28;20567;-79
2021/10/21 03:03:32;;;;;;;2.53;0.70;;;15.30;99.90;;;;;;5074742;28;20218;-79
2021/10/21 03:05:57;;;;;;;1.63;0.50;;;15.30;99.90;;;;;;5074639;28;20246;-79
2021/10/21 03:08:23;;;;;;;2.30;0.60;;;15.30;99.90;;;;;;5074872;28;20200;-79
2021/10/21 03:10:49;;;;;;;1.83;0.73;;;15.30;99.90;;;;;;5074867;28;20229;-79
2021/10/21 03:13:15;;;;;;;2.13;0.60;;;15.30;99.90;;;;;;5074628;28;20630;-79
2021/10/21 03:15:41;;;;;;;2.53;0.50;;;15.30;99.90;;;;;;5075813;28;20590;-78
2021/10/21 03:18:06;;;;;;;1.33;0.53;;;15.30;99.90;;;;;;5074780;28;20562;-79
2021/10/21 03:20:34;;;;;;;2.83;0.50;;;15.40;99.90;;;;;;5074519;28;20168;-78
2021/10/21 03:23:01;;;;;;;1.23;0.50;;;15.40;99.90;;;;;;5074194;28;20702;-79
2021/10/21 03:25:27;;;;;;;2.00;0.50;;;15.40;99.90;;;;;;5074202;28;20709;-79
2021/10/21 03:27:52;;;;;;;1.80;0.53;;;15.40;99.90;;;;;;5074518;28;20789;-79
2021/10/21 03:30:18;;;;;;;2.20;0.60;;;15.40;99.90;;;;;;5074494;28;20175;-78
2021/10/21 03:32:44;;;;;;;3.33;0.70;;;15.50;99.90;;;;;;5073876;28;20169;-78
2021/10/21 03:35:10;;;;;;;1.20;0.60;;;15.50;99.90;;;;;;5074279;28;20361;-78
2021/10/21 03:37:36;;;;;;;2.10;0.60;;;15.60;99.90;;;;;;5074163;28;20566;-78
2021/10/21 03:40:04;;;;;;;3.23;0.70;;;15.70;99.90;;;;;;5074169;28;20581;-78
2021/10/21 03:42:30;;;;;;;3.67;0.60;;;15.70;99.90;;;;;;5073735;28;20570;-78
2021/10/21 03:44:57;;;;;;;1.53;0.70;;;15.70;99.90;;;;;;5074293;28;20609;-79
2021/10/21 03:47:24;;;;;;;1.77;0.60;;;15.80;99.90;;;;;;5073935;28;20566;-78
2021/10/21 03:49:51;;;;;;;5.10;0.70;;;15.80;99.90;;;;;;5074318;28;20559;-79
2021/10/21 03:52:18;;;;;;;3.07;0.50;;;15.80;99.90;;;;;;5075968;28;20563;-79
2021/10/21 03:54:45;;;;;;;1.83;0.50;;;15.80;99.90;;;;;;5074122;28;20598;-79
2021/10/21 03:57:11;;;;;;;2.10;0.50;;;15.80;99.90;;;;;;5073802;28;20566;-78
2021/10/21 03:59:37;;;;;;;1.73;0.60;;;15.80;99.90;;;;;;5074050;28;20582;-79
2021/10/21 04:02:03;;;;;;;2.70;0.50;;;15.80;99.90;;;;;;5073542;28;20581;-79
2021/10/21 04:04:29;;;;;;;2.60;0.70;;;15.80;99.90;;;;;;5073812;28;20606;-79
2021/10/21 04:06:55;;;;;;;2.10;0.50;;;15.70;99.90;;;;;;5073659;28;20601;-79
2021/10/21 04:09:21;;;;;;;2.43;0.53;;;15.80;99.90;;;;;;5073826;28;20614;-79
2021/10/21 04:11:47;;;;;;;1.80;0.57;;;15.80;99.90;;;;;;5072442;28;20214;-79
2021/10/21 04:14:13;;;;;;;2.30;0.50;;;15.70;99.90;;;;;;5073608;28;20563;-79
2021/10/21 04:16:38;;;;;;;1.50;0.50;;;15.80;99.90;;;;;;5072458;28;21024;-79
2021/10/21 04:19:04;;;;;;;3.33;0.60;;;15.70;99.90;;;;;;5074504;28;20176;-79
2021/10/21 04:21:30;;;;;;;1.50;0.50;;;15.80;99.90;;;;;;5073632;28;20252;-79
2021/10/21 04:23:56;;;;;;;1.73;0.50;;;15.80;99.90;;;;;;5071815;28;20632;-79
2021/10/21 04:26:22;;;;;;;2.07;0.50;;;15.80;99.90;;;;;;5073360;28;20192;-79
2021/10/21 04:28:49;;;;;;;2.17;0.60;;;15.80;99.90;;;;;;5075235;28;20615;-78
2021/10/21 04:31:15;;;;;;;5.80;0.60;;;15.80;99.90;;;;;;5073805;28;20555;-79
2021/10/21 04:33:41;;;;;;;1.30;0.50;;;15.80;99.90;;;;;;5072148;28;20554;-79
2021/10/21 04:36:07;;;;;;;1.37;0.60;;;15.80;99.90;;;;;;5073433;28;21150;-79
2021/10/21 04:38:33;;;;;;;2.00;0.50;;;15.80;99.90;;;;;;5073187;28;20679;-79
2021/10/21 04:40:58;;;;;;;3.37;0.50;;;15.80;99.90;;;;;;5073250;28;20172;-79
2021/10/21 04:43:24;;;;;;;2.70;0.73;;;15.80;99.90;;;;;;5073511;28;20347;-79
2021/10/21 04:45:50;;;;;;;1.53;0.50;;;15.80;99.90;;;;;;5073085;28;20192;-79
2021/10/21 04:48:17;;;;;;;2.07;0.50;;;15.80;99.90;;;;;;5071664;28;20664;-79
2021/10/21 04:50:43;;;;;;;5.93;0.50;;;15.90;99.90;;;;;;5073022;28;20643;-78
2021/10/21 04:53:08;;;;;;;2.43;0.50;;;15.80;99.90;;;;;;5072721;28;21190;-78
2021/10/21 04:55:35;;;;;;;1.80;0.43;;;15.80;99.90;;;;;;5071449;28;20602;-79
2021/10/21 04:58:03;;;;;;;1.83;0.50;;;15.80;99.90;;;;;;5072800;28;20165;-78
2021/10/21 05:00:29;;;;;;;1.10;0.53;;;15.90;99.90;;;;;;5072546;28;20570;-78
2021/10/21 05:02:55;;;;;;;1.20;0.40;;;15.90;99.90;;;;;;5072397;28;20571;-79
2021/10/21 05:05:21;;;;;;;1.20;0.60;;;15.90;99.90;;;;;;5074235;28;20647;-79
2021/10/21 05:07:47;;;;;;;0.90;0.40;;;15.90;99.90;;;;;;5072694;28;20618;-78
2021/10/21 05:10:13;;;;;;;2.93;0.50;;;15.90;99.90;;;;;;5072486;28;20604;-78
2021/10/21 05:12:39;;;;;;;2.13;0.33;;;15.90;99.90;;;;;;5072261;28;20661;-78
2021/10/21 05:15:06;;;;;;;1.63;0.40;;;15.90;99.90;;;;;;5070816;28;21213;-78
2021/10/21 05:17:32;;;;;;;1.37;0.37;;;15.90;99.90;;;;;;5072476;28;20555;-78
2021/10/21 05:19:58;;;;;;;1.20;0.40;;;15.90;99.90;;;;;;5072105;28;20924;-78
2021/10/21 05:22:24;;;;;;;1.70;0.30;;;15.90;99.90;;;;;;5072037;28;20571;-78
2021/10/21 05:24:50;;;;;;;1.10;0.30;;;15.90;99.90;;;;;;5072065;28;20180;-78
2021/10/21 05:27:16;;;;;;;1.67;0.30;;;15.90;99.90;;;;;;5072251;28;20203;-79
2021/10/21 05:29:41;;;;;;;1.57;0.30;;;15.90;99.90;;;;;;5072141;28;20571;-79
2021/10/21 05:32:07;;;;;;;0.93;0.33;;;15.90;99.90;;;;;;5071755;28;20566;-79
2021/10/21 05:34:38;;;;;;;1.57;0.30;;;15.90;99.90;;;;;;5072160;28;20216;-77
2021/10/21 05:37:06;;;;;;;1.20;0.60;;;15.90;99.90;;;;;;5070837;28;20570;-78
2021/10/21 05:39:33;;;;;;;0.97;0.33;;;15.80;99.90;;;;;;5072032;28;20903;-78
2021/10/21 05:41:59;;;;;;;2.10;0.30;;;15.80;99.90;;;;;;5072875;28;20656;-78
2021/10/21 05:44:25;;;;;;;1.10;0.40;;;15.80;99.90;;;;;;5073453;28;20579;-78
2021/10/21 05:46:52;;;;;;;1.00;0.30;;;15.80;99.90;;;;;;5071562;28;20579;-78
2021/10/21 05:49:18;;;;;;;1.87;0.40;;;15.80;99.90;;;;;;5070571;28;20665;-77
2021/10/21 05:51:44;;;;;;;1.70;0.50;;;15.80;99.90;;;;;;5071592;28;20562;-77
2021/10/21 05:54:10;;;;;;;1.20;0.50;;;15.70;99.90;;;;;;5071568;28;21058;-76
2021/10/21 05:56:35;;;;;;;1.00;0.40;;;15.60;99.90;;;;;;5070353;28;20599;-76
2021/10/21 05:59:01;;;;;;;2.53;0.40;;;15.50;99.90;;;;;;5071806;28;20168;-76
2021/10/21 06:01:27;;;;;;;3.00;0.60;;;15.30;99.90;;;;;;5071560;28;20221;-75
2021/10/21 06:03:52;;;;;;;1.13;0.40;;;15.20;99.90;;;;;;5059015;28;20211;-76
2021/10/21 06:06:18;;;;;;;7.70;2.70;;;15.00;99.90;;;;;;5049983;28;20545;-77
2021/10/21 06:08:47;;;;;;;2.17;0.60;;;14.90;99.90;;;;;;5051390;28;20668;-75
2021/10/21 06:11:13;;;;;;;6.37;0.73;;;14.70;99.90;;;;;;5051183;28;20612;-75
2021/10/21 06:13:39;;;;;;;5.13;0.63;;;14.60;99.90;;;;;;5051074;28;20583;-76
2021/10/21 06:16:06;;;;;;;5.10;0.90;;;14.50;99.90;;;;;;5050437;28;20659;-76
2021/10/21 06:18:34;;;;;;;4.38;0.70;;;14.50;99.90;;;;;;5049728;28;20682;-75
2021/10/21 06:21:01;;;;;;;2.83;0.63;;;14.40;99.90;;;;;;5053037;28;20230;-76
2021/10/21 06:23:28;;;;;;;3.10;0.60;;;14.30;99.90;;;;;;5050475;28;21159;-76
2021/10/21 06:25:54;;;;;;;2.03;0.68;;;14.20;99.90;;;;;;5031233;28;20673;-76
2021/10/21 06:28:20;;;;;;;2.75;0.77;;;14.10;99.90;;;;;;5029985;28;20288;-76
2021/10/21 06:30:47;;;;;;;1.60;0.63;;;14.00;99.90;;;;;;5030649;28;20260;-75
2021/10/21 06:33:14;;;;;;;2.60;1.17;;;14.00;99.90;;;;;;5030165;28;20668;-76
2021/10/21 06:35:44;;;;;;;2.08;0.80;;;13.90;99.90;;;;;;5029636;28;20181;-76
2021/10/21 06:38:10;;;;;;;2.45;1.08;;;13.90;99.90;;;;;;5030662;28;20166;-75
2021/10/21 06:40:37;;;;;;;3.58;0.90;;;13.90;99.90;;;;;;5031023;28;20205;-75
2021/10/21 06:43:03;;;;;;;3.13;0.85;;;13.80;99.90;;;;;;5030794;28;20260;-75
2021/10/21 06:45:29;;;;;;;5.20;1.63;;;13.70;99.90;;;;;;5022423;28;20195;-75
2021/10/21 06:47:55;;;;;;;4.20;1.00;;;13.60;99.90;;;;;;5067376;28;20216;-76
2021/10/21 06:50:20;;;;;;;4.70;1.00;;;13.50;99.90;;;;;;5054336;28;20235;-75
2021/10/21 06:52:49;;;;;;;4.97;0.90;;;13.50;99.90;;;;;;5066797;28;20586;-76
2021/10/21 06:55:16;;;;;;;10.07;2.08;;;13.40;99.90;;;;;;5050753;28;20638;-76
2021/10/21 06:57:53;;;;;;;3.40;0.90;;;13.30;99.90;;;;;;5055621;28;20168;-76
2021/10/21 07:00:20;;;;;;;5.13;1.73;;;13.40;99.90;;;;;;5070219;28;20199;-75
2021/10/21 07:02:46;;;;;;;4.97;0.90;;;13.30;99.90;;;;;;5070363;28;20172;-75
2021/10/21 07:05:13;;;;;;;3.42;0.95;;;13.30;99.90;;;;;;5070312;28;20513;-75
2021/10/21 07:07:40;;;;;;;3.17;0.90;;;13.30;99.90;;;;;;5053437;28;20258;-75
2021/10/21 07:10:06;;;;;;;8.23;1.67;;;13.20;99.90;;;;;;5050903;28;20177;-75
2021/10/21 07:12:33;;;;;;;4.47;1.23;;;13.20;99.90;;;;;;5050222;28;20170;-76
2021/10/21 07:14:59;;;;;;;6.32;1.20;;;13.20;99.90;;;;;;5050448;28;20196;-77
2021/10/21 07:17:26;;;;;;;4.50;1.20;;;13.10;99.90;;;;;;5049107;28;20177;-75
2021/10/21 07:19:52;;;;;;;8.30;1.17;;;13.10;99.90;;;;;;5049309;28;20645;-75
2021/10/21 07:22:18;;;;;;;3.90;1.13;;;13.10;99.90;;;;;;5050096;28;20176;-75
2021/10/21 07:24:43;;;;;;;3.93;1.10;;;13.10;99.90;;;;;;5065268;28;20739;-75
2021/10/21 07:27:10;;;;;;;3.47;0.90;;;13.00;99.90;;;;;;5070124;28;20578;-75
2021/10/21 07:29:36;;;;;;;4.68;1.17;;;13.00;99.90;;;;;;5074187;28;20625;-74
2021/10/21 07:32:02;;;;;;;3.77;1.40;;;13.00;99.90;;;;;;5074247;28;20160;-75
2021/10/21 07:34:28;;;;;;;3.00;0.90;;;13.00;99.90;;;;;;5076162;28;20555;-74
2021/10/21 07:36:54;;;;;;;3.60;0.85;;;12.90;99.90;;;;;;5073105;28;21362;-76
2021/10/21 07:39:24;;;;;;;4.68;0.80;;;12.90;99.90;;;;;;5074243;28;20180;-75
2021/10/21 07:41:50;;;;;;;2.05;0.80;;;12.90;99.90;;;;;;5074050;28;20203;-76
2021/10/21 07:44:20;;;;;;;4.03;0.80;;;12.90;99.90;;;;;;5072510;28;20249;-75
2021/10/21 07:46:47;;;;;;;8.05;0.80;;;12.90;99.90;;;;;;5074335;28;20172;-75
2021/10/21 07:49:13;;;;;;;4.30;0.90;;;12.80;99.90;;;;;;5073772;28;20590;-76
2021/10/21 07:51:40;;;;;;;3.83;1.00;;;12.80;99.90;;;;;;5072830;28;20172;-76
2021/10/21 07:54:06;;;;;;;2.28;1.05;;;12.70;99.90;;;;;;5072288;28;20172;-76
2021/10/21 07:56:33;;;;;;;3.50;1.05;;;12.70;99.90;;;;;;5074104;28;20608;-76
2021/10/21 07:59:01;;;;;;;4.07;0.90;;;12.70;99.90;;;;;;5056666;28;20256;-76
2021/10/21 08:01:27;;;;;;;6.20;1.60;;;12.80;99.90;;;;;;5053531;28;20192;-76
2021/10/21 08:03:53;;;;;;;3.83;1.50;;;12.80;99.90;;;;;;5053486;28;20161;-76
2021/10/21 08:06:21;;;;;;;5.97;1.30;;;12.80;99.90;;;;;;5053259;28;20254;-76
2021/10/21 08:08:47;;;;;;;3.40;1.20;;;12.90;99.90;;;;;;5053641;28;20205;-76
2021/10/21 08:11:14;;;;;;;6.68;1.63;;;12.90;99.90;;;;;;5056009;28;20169;-76
2021/10/21 08:13:39;;;;;;;10.30;1.20;;;13.00;99.90;;;;;;5053372;28;20203;-76
2021/10/21 08:16:05;;;;;;;4.93;1.10;;;13.10;99.90;;;;;;5053447;28;20224;-76
2021/10/21 08:18:31;;;;;;;3.53;1.20;;;13.10;99.90;;;;;;5053568;28;20521;-76
2021/10/21 08:20:58;;;;;;;5.78;1.00;;;13.20;99.90;;;;;;5052228;28;20177;-76
2021/10/21 08:23:23;;;;;;;3.55;1.20;;;13.30;99.90;;;;;;5052681;28;20188;-77
2021/10/21 08:25:49;;;;;;;5.60;1.20;;;13.40;99.90;;;;;;5053471;28;20554;-76
2021/10/21 08:28:15;;;;;;;3.60;1.20;;;13.60;99.90;;;;;;5053019;28;20291;-76
2021/10/21 08:30:43;;;;;;;4.60;1.13;;;13.70;99.90;;;;;;5052179;28;20169;-76
2021/10/21 08:33:11;;;;;;;4.20;1.00;;;13.90;99.90;;;;;;5052545;28;20184;-77
2021/10/21 08:35:37;;;;;;;5.80;1.10;;;14.10;99.90;;;;;;5053804;28;20611;-76
2021/10/21 08:38:05;;;;;;;8.00;1.43;;;14.50;99.90;;;;;;5051623;28;20571;-76
2021/10/21 08:40:33;;;;;;;6.37;1.30;;;14.70;99.90;;;;;;5053172;28;20177;-77
2021/10/21 08:43:04;;;;;;;5.90;1.50;;;14.90;99.90;;;;;;5052372;28;20568;-77
2021/10/21 08:45:30;;;;;;;3.10;1.30;;;15.10;99.90;;;;;;5053007;28;20966;-77
2021/10/21 08:48:01;;;;;;;3.30;1.53;;;15.20;99.90;;;;;;5037399;28;21158;-76
2021/10/21 08:50:29;;;;;;;5.30;1.30;;;15.30;99.90;;;;;;5053394;28;20571;-76
2021/10/21 08:52:55;;;;;;;5.10;1.47;;;15.30;99.90;;;;;;5052598;28;20622;-77
2021/10/21 08:55:21;;;;;;;7.70;0.97;;;15.30;99.90;;;;;;5052539;28;20599;-76
2021/10/21 08:57:47;;;;;;;6.00;1.60;;;15.30;99.90;;;;;;5051640;28;20181;-75
2021/10/21 09:00:13;;;;;;;7.37;1.23;;;15.30;99.90;;;;;;5051174;28;20671;-76
2021/10/21 09:05:29;;;;;;;3.70;1.20;;;15.20;99.90;;;;;;5052243;28;20698;-75
2021/10/21 09:08:13;;;;;;;5.97;1.30;;;15.40;99.90;;;;;;5052607;28;20619;-75
2021/10/21 09:10:58;;;;;;;2.30;1.00;;;15.70;99.90;;;;;;5052164;28;20560;-75
2021/10/21 09:13:30;;;;;;;3.57;0.90;;;16.30;99.90;;;;;;5050800;28;20575;-76
2021/10/21 09:15:59;;;;;;;2.50;0.80;;;17.10;99.90;;;;;;5033980;28;20623;-76
2021/10/21 09:18:33;;;;;;;5.17;0.97;;;17.60;99.90;;;;;;5052521;28;20922;-76
2021/10/21 09:20:59;;;;;;;2.37;0.83;;;18.00;99.90;;;;;;5051910;28;20580;-76
2021/10/21 09:23:28;;;;;;;7.23;1.40;;;18.40;99.90;;;;;;5052064;28;20998;-76
2021/10/21 09:26:04;;;;;;;7.60;1.73;;;18.80;99.90;;;;;;5052638;28;20196;-76
2021/10/21 09:28:30;;;;;;;3.30;1.47;;;19.20;99.90;;;;;;5052072;28;21225;-76
2021/10/21 09:31:04;;;;;;;5.10;1.23;;;19.80;99.90;;;;;;5050995;28;20575;-76
2021/10/21 09:33:56;;;;;;;3.10;0.80;;;19.90;99.90;;;;;;5051632;28;20156;-77
2021/10/21 09:36:26;;;;;;;2.80;0.70;;;20.10;99.90;;;;;;5050430;28;20592;-77
2021/10/21 09:38:57;;;;;;;4.47;0.80;;;20.10;99.90;;;;;;5051954;28;20621;-76
2021/10/21 09:41:25;;;;;;;4.97;1.00;;;20.10;99.90;;;;;;5052116;28;20595;-76
2021/10/21 09:43:52;;;;;;;5.80;1.20;;;20.20;99.90;;;;;;5050270;28;20670;-75
2021/10/21 09:46:33;;;;;;;7.37;1.00;;;20.20;99.90;;;;;;5050278;28;20580;-75
2021/10/21 09:49:21;;;;;;;3.07;0.70;;;20.10;99.90;;;;;;5049619;28;20726;-75
2021/10/21 09:51:49;;;;;;;3.20;0.90;;;20.00;99.90;;;;;;5050663;28;20563;-76
2021/10/21 09:54:17;;;;;;;5.07;0.97;;;19.80;99.90;;;;;;5051412;28;20573;-75
2021/10/21 09:57:04;;;;;;;3.10;0.90;;;19.50;99.90;;;;;;5051821;28;20599;-76
2021/10/21 09:59:37;;;;;;;3.37;1.97;;;19.10;99.90;;;;;;5051639;28;20563;-76
2021/10/21 10:02:19;;;;;;;6.37;1.43;;;18.80;99.90;;;;;;5053821;28;20571;-75
2021/10/21 10:04:47;;;;;;;5.97;0.77;;;18.50;99.90;;;;;;5051445;28;20714;-76
2021/10/21 10:07:14;;;;;;;4.60;0.93;;;18.20;99.90;;;;;;5051537;28;20566;-75
2021/10/21 10:09:41;;;;;;;4.50;0.87;;;17.90;99.90;;;;;;5051288;28;20761;-75
2021/10/21 10:12:08;;;;;;;5.67;1.10;;;17.70;99.90;;;;;;5049858;28;20585;-75
2021/10/21 10:14:45;;;;;;;9.30;1.80;;;17.60;99.90;;;;;;5050578;28;20575;-74
2021/10/21 10:17:16;;;;;;;5.73;1.10;;;17.40;99.90;;;;;;5050187;28;20937;-74
2021/10/21 10:19:47;;;;;;;3.80;0.87;;;17.30;99.90;;;;;;5051767;28;21013;-77
2021/10/21 10:22:31;;;;;;;4.13;1.30;;;17.20;99.90;;;;;;5049604;28;20633;-75
2021/10/21 10:24:57;;;;;;;6.90;2.60;;;17.00;99.90;;;;;;5051243;28;20611;-76
2021/10/21 10:27:29;;;;;;;8.30;1.90;;;16.90;99.90;;;;;;5051081;28;20572;-75
2021/10/21 10:30:02;;;;;;;3.83;1.57;;;16.80;99.90;;;;;;5051978;28;21101;-76
2021/10/21 10:32:30;;;;;;;5.43;1.27;;;16.70;99.90;;;;;;5032848;28;21240;-75
2021/10/21 10:34:57;;;;;;;3.40;0.90;;;16.60;99.90;;;;;;5050892;28;20947;-75
2021/10/21 10:37:23;;;;;;;4.57;1.20;;;16.60;99.90;;;;;;5051015;28;20559;-76
2021/10/21 10:39:50;;;;;;;3.67;2.00;;;16.50;99.90;;;;;;5050988;28;21149;-76
2021/10/21 10:42:37;;;;;;;3.90;1.20;;;16.50;99.90;;;;;;5049413;28;20514;-75
2021/10/21 10:45:08;;;;;;;3.30;1.00;;;16.40;99.90;;;;;;5051035;28;20698;-75
2021/10/21 10:47:41;;;;;;;4.33;1.00;;;16.30;99.90;;;;;;5051131;28;20658;-76
2021/10/21 10:50:13;;;;;;;3.03;1.10;;;16.30;99.90;;;;;;5050408;28;20572;-75
2021/10/21 10:52:52;;;;;;;6.30;0.93;;;16.20;99.90;;;;;;5049962;28;20574;-76
2021/10/21 10:55:39;;;;;;;3.00;0.87;;;16.20;99.90;;;;;;5049622;28;20726;-75
2021/10/21 10:58:14;;;;;;;6.90;2.23;;;16.10;99.90;;;;;;5050946;28;20583;-76
2021/10/21 11:00:56;;;;;;;7.60;2.00;;;16.00;99.90;;;;;;5051233;28;20637;-76
2021/10/21 11:03:38;;;;;;;3.40;1.20;;;16.00;99.90;;;;;;5054749;28;20572;-77
2021/10/21 11:06:09;;;;;;;4.77;1.70;;;16.00;99.90;;;;;;5054613;28;21171;-76
2021/10/21 11:08:50;;;;;;;10.73;4.63;;;16.10;99.90;;;;;;5054514;28;20619;-76
2021/10/21 11:11:58;;;;;;;7.00;1.30;;;16.20;99.90;;;;;;5053212;28;20621;-76
2021/10/21 11:14:30;;;;;;;3.07;0.80;;;16.40;99.90;;;;;;5045506;28;20623;-75
2021/10/21 11:16:56;;;;;;;3.47;1.10;;;16.60;99.90;;;;;;5057395;28;21095;-78
2021/10/21 11:19:42;;;;;;;6.33;1.00;;;16.80;99.90;;;;;;5054741;28;20971;-75
2021/10/21 11:22:09;;;;;;;5.33;0.80;;;16.90;99.90;;;;;;5053834;28;20559;-74
2021/10/21 11:24:48;;;;;;;4.63;1.00;;;17.00;99.90;;;;;;5053335;28;20568;-75
2021/10/21 11:27:15;;;;;;;3.70;1.30;;;17.00;99.90;;;;;;5054187;28;20921;-75
2021/10/21 11:29:41;;;;;;;5.27;0.80;;;17.10;99.90;;;;;;5054363;28;20623;-75
2021/10/21 11:32:09;;;;;;;4.70;0.80;;;17.20;99.90;;;;;;5053719;28;20565;-76
2021/10/21 11:34:36;;;;;;;5.43;1.57;;;17.30;99.90;;;;;;5054101;28;20662;-76
2021/10/21 11:37:03;;;;;;;7.30;1.10;;;17.30;99.90;;;;;;5019820;28;21150;-76
2021/10/21 11:39:34;;;;;;;4.73;1.43;;;17.30;99.90;;;;;;5053952;28;20575;-77
2021/10/21 11:42:08;;;;;;;6.23;1.00;;;17.50;99.90;;;;;;5053870;28;21068;-77
2021/10/21 11:44:35;;;;;;;2.80;0.80;;;17.60;99.90;;;;;;5054016;28;20602;-78
2021/10/21 11:47:05;;;;;;;3.00;0.80;;;17.80;99.90;;;;;;5057163;28;20567;-78
2021/10/21 11:49:33;;;;;;;3.73;0.87;;;17.80;99.90;;;;;;5053470;28;20654;-77
2021/10/21 11:52:06;;;;;;;5.90;1.00;;;17.90;99.90;;;;;;5053607;28;20603;-77
2021/10/21 11:54:32;;;;;;;2.63;1.50;;;18.00;99.90;;;;;;5055723;28;20669;-77
2021/10/21 11:56:59;;;;;;;2.97;1.00;;;18.00;99.90;;;;;;5054111;28;20632;-77
2021/10/21 11:59:38;;;;;;;3.47;0.90;;;18.00;99.90;;;;;;5052525;28;20618;-78
2021/10/21 12:02:13;;;;;;;3.00;0.70;;;17.90;99.90;;;;;;5052254;28;20582;-78
2021/10/21 12:04:43;;;;;;;11.30;2.13;;;17.80;99.90;;;;;;5053681;28;20613;-78
2021/10/21 12:07:10;;;;;;;7.20;1.07;;;17.70;99.90;;;;;;5053674;28;20560;-77
2021/10/21 12:09:37;;;;;;;2.90;1.20;;;17.60;99.90;;;;;;5053580;28;20726;-77
2021/10/21 12:12:06;;;;;;;2.43;0.70;;;17.40;99.90;;;;;;5053105;28;20901;-76
2021/10/21 12:14:33;;;;;;;3.33;0.90;;;17.20;99.90;;;;;;5052859;28;20564;-77
2021/10/21 12:16:59;;;;;;;4.00;1.13;;;17.00;99.90;;;;;;5053247;28;20568;-76
2021/10/21 12:19:26;;;;;;;5.67;0.90;;;16.80;99.90;;;;;;5053586;28;20575;-77
2021/10/21 12:22:17;;;;;;;2.57;0.90;;;16.50;99.90;;;;;;5053205;28;20571;-76
2021/10/21 12:24:45;;;;;;;5.03;1.00;;;16.30;99.90;;;;;;5053332;28;20603;-75
2021/10/21 12:27:18;;;;;;;2.17;0.83;;;16.00;99.90;;;;;;5053274;28;20564;-76
2021/10/21 12:29:44;;;;;;;4.07;1.07;;;15.80;99.90;;;;;;5056539;28;20623;-75
2021/10/21 12:32:11;;;;;;;5.87;1.33;;;15.50;99.90;;;;;;5051582;28;20578;-76
2021/10/21 12:34:36;;;;;;;4.10;0.90;;;15.20;99.90;;;;;;5052978;28;20579;-77
2021/10/21 12:37:08;;;;;;;2.97;0.83;;;15.00;99.90;;;;;;5035039;28;20578;-77
2021/10/21 12:39:35;;;;;;;1.92;0.75;;;14.70;99.90;;;;;;5035278;28;20607;-76
2021/10/21 12:42:06;;;;;;;3.58;0.80;;;14.40;99.90;;;;;;5051430;28;20536;-76
2021/10/21 12:44:40;;;;;;;2.10;1.00;;;14.20;99.90;;;;;;5052822;28;20173;-76
2021/10/21 12:47:25;;;;;;;2.25;0.70;;;14.00;99.90;;;;;;5053031;28;20310;-76
2021/10/21 12:49:56;;;;;;;3.60;0.82;;;13.70;99.90;;;;;;5052694;28;20314;-76
2021/10/21 12:52:25;;;;;;;2.17;0.70;;;13.50;99.90;;;;;;5051250;28;20246;-76